sensor_id;sensor_type;location;lat;lon;timestamp;temperature;humidity
21207;DHT22;10761;48.532;8.026;2023-12-07T00:00:36;2.00;99.90
21207;DHT22;10761;48.532;8.026;2023-12-07T00:03:01;1.90;99.90
21207;DHT22;10761;48.532;8.026;2023-12-07T00:05:27;1.90;99.90
21207;DHT22;10761;48.532;8.026;2023-12-07T00:07:53;1.90;99.90
21207;DHT22;10761;48.532;8.026;2023-12-07T00:10:19;1.80;99.90
21207;DHT22;10761;48.532;8.026;2023-12-07T00:12:44;1.90;99.90
21207;DHT22;10761;48.532;8.026;2023-12-07T00:15:10;2.00;99.90
21207;DHT22;10761;48.532;8.026;2023-12-07T00:17:35;2.00;99.90
21207;DHT22;10761;48.532;8.026;2023-12-07T00:20:01;1.90;99.90
21207;DHT22;10761;48.532;8.026;2023-12-07T00:22:29;1.80;99.90
21207;DHT22;10761;48.532;8.026;2023-12-07T00:24:55;1.80;99.90
21207;DHT22;10761;48.532;8.026;2023-12-07T00:27:20;1.70;99.90
21207;DHT22;10761;48.532;8.026;2023-12-07T00:29:46;1.70;99.90
21207;DHT22;10761;48.532;8.026;2023-12-07T00:32:12;1.60;99.90
21207;DHT22;10761;48.532;8.026;2023-12-07T00:34:38;1.60;99.90
21207;DHT22;10761;48.532;8.026;2023-12-07T00:37:03;1.60;99.90
21207;DHT22;10761;48.532;8.026;2023-12-07T00:39:29;1.50;99.90
21207;DHT22;10761;48.532;8.026;2023-12-07T00:41:54;1.60;99.90
21207;DHT22;10761;48.532;8.026;2023-12-07T00:44:20;1.60;99.90
21207;DHT22;10761;48.532;8.026;2023-12-07T00:46:46;1.60;99.90
21207;DHT22;10761;48.532;8.026;2023-12-07T00:49:11;1.60;99.90
21207;DHT22;10761;48.532;8.026;2023-12-07T00:51:38;1.60;99.90
21207;DHT22;10761;48.532;8.026;2023-12-07T00:54:04;1.60;99.90
21207;DHT22;10761;48.532;8.026;2023-12-07T00:56:30;1.80;99.90
21207;DHT22;10761;48.532;8.026;2023-12-07T00:58:55;1.80;99.90
21207;DHT22;10761;48.532;8.026;2023-12-07T01:01:21;1.90;99.90
21207;DHT22;10761;48.532;8.026;2023-12-07T01:03:46;1.80;99.90
21207;DHT22;10761;48.532;8.026;2023-12-07T01:06:12;1.80;99.90
21207;DHT22;10761;48.532;8.026;2023-12-07T01:08:38;1.80;99.90
21207;DHT22;10761;48.532;8.026;2023-12-07T01:11:04;1.70;99.90
21207;DHT22;10761;48.532;8.026;2023-12-07T01:13:30;1.60;99.90
21207;DHT22;10761;48.532;8.026;2023-12-07T01:15:56;1.50;99.90
21207;DHT22;10761;48.532;8.026;2023-12-07T01:18:22;1.40;99.90
21207;DHT22;10761;48.532;8.026;2023-12-07T01:20:47;1.30;99.90
21207;DHT22;10761;48.532;8.026;2023-12-07T01:23:14;1.20;99.90
21207;DHT22;10761;48.532;8.026;2023-12-07T01:25:40;1.10;99.90
21207;DHT22;10761;48.532;8.026;2023-12-07T01:28:05;1.00;99.90
21207;DHT22;10761;48.532;8.026;2023-12-07T01:30:31;1.00;99.90
21207;DHT22;10761;48.532;8.026;2023-12-07T01:32:56;1.10;99.90
21207;DHT22;10761;48.532;8.026;2023-12-07T01:35:22;1.20;99.90
21207;DHT22;10761;48.532;8.026;2023-12-07T01:37:48;1.30;99.90
21207;DHT22;10761;48.532;8.026;2023-12-07T01:40:13;1.50;99.90
21207;DHT22;10761;48.532;8.026;2023-12-07T01:42:40;1.70;99.90
21207;DHT22;10761;48.532;8.026;2023-12-07T01:45:06;1.70;99.90
21207;DHT22;10761;48.532;8.026;2023-12-07T01:47:34;1.60;99.90
21207;DHT22;10761;48.532;8.026;2023-12-07T01:50:00;1.60;99.90
21207;DHT22;10761;48.532;8.026;2023-12-07T01:52:30;1.50;99.90
21207;DHT22;10761;48.532;8.026;2023-12-07T01:54:56;1.40;99.90
21207;DHT22;10761;48.532;8.026;2023-12-07T01:57:23;1.30;99.90
21207;DHT22;10761;48.532;8.026;2023-12-07T01:59:50;1.30;99.90
21207;DHT22;10761;48.532;8.026;2023-12-07T02:02:16;1.30;99.90
21207;DHT22;10761;48.532;8.026;2023-12-07T02:04:41;1.20;99.90
21207;DHT22;10761;48.532;8.026;2023-12-07T02:07:07;1.10;99.90
21207;DHT22;10761;48.532;8.026;2023-12-07T02:09:33;1.00;99.90
21207;DHT22;10761;48.532;8.026;2023-12-07T02:11:59;1.10;99.90
21207;DHT22;10761;48.532;8.026;2023-12-07T02:14:25;1.10;99.90
21207;DHT22;10761;48.532;8.026;2023-12-07T02:17:05;1.30;99.90
21207;DHT22;10761;48.532;8.026;2023-12-07T02:22:21;1.40;99.90
21207;DHT22;10761;48.532;8.026;2023-12-07T02:27:36;1.30;99.90
21207;DHT22;10761;48.532;8.026;2023-12-07T02:30:02;1.20;99.90
21207;DHT22;10761;48.532;8.026;2023-12-07T02:32:28;1.10;99.90
21207;DHT22;10761;48.532;8.026;2023-12-07T02:34:54;1.10;99.90
21207;DHT22;10761;48.532;8.026;2023-12-07T02:37:21;1.10;99.90
21207;DHT22;10761;48.532;8.026;2023-12-07T02:39:48;1.20;99.90
21207;DHT22;10761;48.532;8.026;2023-12-07T02:42:15;1.20;99.90
21207;DHT22;10761;48.532;8.026;2023-12-07T02:44:42;1.30;99.90
21207;DHT22;10761;48.532;8.026;2023-12-07T02:47:08;1.40;99.90
21207;DHT22;10761;48.532;8.026;2023-12-07T02:49:34;1.40;99.90
21207;DHT22;10761;48.532;8.026;2023-12-07T02:52:00;1.30;99.90
21207;DHT22;10761;48.532;8.026;2023-12-07T02:54:25;1.20;99.90
21207;DHT22;10761;48.532;8.026;2023-12-07T02:56:51;1.10;99.90
21207;DHT22;10761;48.532;8.026;2023-12-07T02:59:16;0.90;99.90
21207;DHT22;10761;48.532;8.026;2023-12-07T03:01:42;0.90;99.90
21207;DHT22;10761;48.532;8.026;2023-12-07T03:04:07;1.10;99.90
21207;DHT22;10761;48.532;8.026;2023-12-07T03:06:33;1.30;99.90
21207;DHT22;10761;48.532;8.026;2023-12-07T03:08:59;1.30;99.90
21207;DHT22;10761;48.532;8.026;2023-12-07T03:11:24;1.20;99.90
21207;DHT22;10761;48.532;8.026;2023-12-07T03:13:50;1.10;99.90
21207;DHT22;10761;48.532;8.026;2023-12-07T03:16:15;1.10;99.90
21207;DHT22;10761;48.532;8.026;2023-12-07T03:18:41;1.00;99.90
21207;DHT22;10761;48.532;8.026;2023-12-07T03:21:06;0.90;99.90
21207;DHT22;10761;48.532;8.026;2023-12-07T03:23:32;0.70;99.90
21207;DHT22;10761;48.532;8.026;2023-12-07T03:25:58;0.60;99.90
21207;DHT22;10761;48.532;8.026;2023-12-07T03:28:23;0.50;99.90
21207;DHT22;10761;48.532;8.026;2023-12-07T03:30:49;0.50;99.90
21207;DHT22;10761;48.532;8.026;2023-12-07T03:33:14;0.40;99.90
21207;DHT22;10761;48.532;8.026;2023-12-07T03:35:40;0.40;99.90
21207;DHT22;10761;48.532;8.026;2023-12-07T03:38:06;0.40;99.90
21207;DHT22;10761;48.532;8.026;2023-12-07T03:40:32;0.40;99.90
21207;DHT22;10761;48.532;8.026;2023-12-07T03:42:57;0.40;99.90
21207;DHT22;10761;48.532;8.026;2023-12-07T03:45:23;0.50;99.90
21207;DHT22;10761;48.532;8.026;2023-12-07T03:47:49;0.50;99.90
21207;DHT22;10761;48.532;8.026;2023-12-07T03:50:15;0.50;99.90
21207;DHT22;10761;48.532;8.026;2023-12-07T03:52:40;0.70;99.90
21207;DHT22;10761;48.532;8.026;2023-12-07T03:55:06;0.90;99.90
21207;DHT22;10761;48.532;8.026;2023-12-07T03:57:32;1.00;99.90
21207;DHT22;10761;48.532;8.026;2023-12-07T03:59:57;1.00;99.90
21207;DHT22;10761;48.532;8.026;2023-12-07T04:02:23;1.10;99.90
21207;DHT22;10761;48.532;8.026;2023-12-07T04:04:49;1.10;99.90
21207;DHT22;10761;48.532;8.026;2023-12-07T04:07:15;1.10;99.90
21207;DHT22;10761;48.532;8.026;2023-12-07T04:09:40;1.10;99.90
21207;DHT22;10761;48.532;8.026;2023-12-07T04:12:06;1.10;99.90
21207;DHT22;10761;48.532;8.026;2023-12-07T04:14:32;1.10;99.90
21207;DHT22;10761;48.532;8.026;2023-12-07T04:16:57;1.20;99.90
21207;DHT22;10761;48.532;8.026;2023-12-07T04:19:23;1.30;99.90
21207;DHT22;10761;48.532;8.026;2023-12-07T04:21:49;1.30;99.90
21207;DHT22;10761;48.532;8.026;2023-12-07T04:24:14;1.40;99.90
21207;DHT22;10761;48.532;8.026;2023-12-07T04:26:40;1.40;99.90
21207;DHT22;10761;48.532;8.026;2023-12-07T04:29:05;1.50;99.90
21207;DHT22;10761;48.532;8.026;2023-12-07T04:31:31;1.50;99.90
21207;DHT22;10761;48.532;8.026;2023-12-07T04:33:56;1.40;99.90
21207;DHT22;10761;48.532;8.026;2023-12-07T04:36:22;1.20;99.90
21207;DHT22;10761;48.532;8.026;2023-12-07T04:38:48;1.10;99.90
21207;DHT22;10761;48.532;8.026;2023-12-07T04:41:13;0.90;99.90
21207;DHT22;10761;48.532;8.026;2023-12-07T04:43:39;0.80;99.90
21207;DHT22;10761;48.532;8.026;2023-12-07T04:46:04;0.70;99.90
21207;DHT22;10761;48.532;8.026;2023-12-07T04:48:30;0.60;99.90
21207;DHT22;10761;48.532;8.026;2023-12-07T04:50:56;0.50;99.90
21207;DHT22;10761;48.532;8.026;2023-12-07T04:53:22;0.50;99.90
21207;DHT22;10761;48.532;8.026;2023-12-07T04:55:47;0.40;99.90
21207;DHT22;10761;48.532;8.026;2023-12-07T04:58:15;0.40;99.90
21207;DHT22;10761;48.532;8.026;2023-12-07T05:00:41;0.30;99.90
21207;DHT22;10761;48.532;8.026;2023-12-07T05:03:06;0.20;99.90
21207;DHT22;10761;48.532;8.026;2023-12-07T05:05:32;0.20;99.90
21207;DHT22;10761;48.532;8.026;2023-12-07T05:07:58;0.20;99.90
21207;DHT22;10761;48.532;8.026;2023-12-07T05:10:23;0.20;99.90
21207;DHT22;10761;48.532;8.026;2023-12-07T05:12:49;0.30;99.90
21207;DHT22;10761;48.532;8.026;2023-12-07T05:15:15;0.30;99.90
21207;DHT22;10761;48.532;8.026;2023-12-07T05:17:41;0.40;99.90
21207;DHT22;10761;48.532;8.026;2023-12-07T05:20:07;0.40;99.90
21207;DHT22;10761;48.532;8.026;2023-12-07T05:22:33;0.40;99.90
21207;DHT22;10761;48.532;8.026;2023-12-07T05:24:58;0.30;99.90
21207;DHT22;10761;48.532;8.026;2023-12-07T05:27:24;0.30;99.90
21207;DHT22;10761;48.532;8.026;2023-12-07T05:29:49;0.20;99.90
21207;DHT22;10761;48.532;8.026;2023-12-07T05:32:15;0.10;99.90
21207;DHT22;10761;48.532;8.026;2023-12-07T05:34:41;0.10;99.90
21207;DHT22;10761;48.532;8.026;2023-12-07T05:37:07;0.10;99.90
21207;DHT22;10761;48.532;8.026;2023-12-07T05:39:33;0.10;99.90
21207;DHT22;10761;48.532;8.026;2023-12-07T05:41:58;0.00;99.90
21207;DHT22;10761;48.532;8.026;2023-12-07T05:44:24;-0.10;99.90
21207;DHT22;10761;48.532;8.026;2023-12-07T05:46:50;-0.10;99.90
21207;DHT22;10761;48.532;8.026;2023-12-07T05:49:15;-0.20;99.90
21207;DHT22;10761;48.532;8.026;2023-12-07T05:51:41;-0.30;99.90
21207;DHT22;10761;48.532;8.026;2023-12-07T05:54:07;-0.30;99.90
21207;DHT22;10761;48.532;8.026;2023-12-07T05:56:33;-0.40;99.90
21207;DHT22;10761;48.532;8.026;2023-12-07T05:58:58;-0.30;99.90
21207;DHT22;10761;48.532;8.026;2023-12-07T06:01:24;-0.40;99.90
21207;DHT22;10761;48.532;8.026;2023-12-07T06:03:49;-0.40;99.90
21207;DHT22;10761;48.532;8.026;2023-12-07T06:06:15;-0.50;99.90
21207;DHT22;10761;48.532;8.026;2023-12-07T06:08:41;-0.30;99.90
21207;DHT22;10761;48.532;8.026;2023-12-07T06:11:07;-0.30;99.90
21207;DHT22;10761;48.532;8.026;2023-12-07T06:13:33;-0.30;99.90
21207;DHT22;10761;48.532;8.026;2023-12-07T06:15:59;-0.40;99.90
21207;DHT22;10761;48.532;8.026;2023-12-07T06:18:25;-0.40;99.90
21207;DHT22;10761;48.532;8.026;2023-12-07T06:20:50;-0.50;99.90
21207;DHT22;10761;48.532;8.026;2023-12-07T06:23:16;-0.60;99.90
21207;DHT22;10761;48.532;8.026;2023-12-07T06:25:42;-0.60;99.90
21207;DHT22;10761;48.532;8.026;2023-12-07T06:28:07;-0.60;99.90
21207;DHT22;10761;48.532;8.026;2023-12-07T06:30:33;-0.60;99.90
21207;DHT22;10761;48.532;8.026;2023-12-07T06:32:59;-0.70;99.90
21207;DHT22;10761;48.532;8.026;2023-12-07T06:35:25;-0.80;99.90
21207;DHT22;10761;48.532;8.026;2023-12-07T06:37:51;-0.90;99.90
21207;DHT22;10761;48.532;8.026;2023-12-07T06:40:17;-0.90;99.90
21207;DHT22;10761;48.532;8.026;2023-12-07T06:42:42;-0.90;99.90
21207;DHT22;10761;48.532;8.026;2023-12-07T06:45:08;-0.90;99.90
21207;DHT22;10761;48.532;8.026;2023-12-07T06:47:37;-1.00;99.90
21207;DHT22;10761;48.532;8.026;2023-12-07T06:50:04;-1.00;99.90
21207;DHT22;10761;48.532;8.026;2023-12-07T06:52:29;-0.90;99.90
21207;DHT22;10761;48.532;8.026;2023-12-07T06:54:55;-0.90;99.90
21207;DHT22;10761;48.532;8.026;2023-12-07T06:57:21;-0.80;99.90
21207;DHT22;10761;48.532;8.026;2023-12-07T06:59:47;-0.80;99.90
21207;DHT22;10761;48.532;8.026;2023-12-07T07:02:13;-0.60;99.90
21207;DHT22;10761;48.532;8.026;2023-12-07T07:04:38;-0.60;99.90
21207;DHT22;10761;48.532;8.026;2023-12-07T07:07:04;-0.50;99.90
21207;DHT22;10761;48.532;8.026;2023-12-07T07:09:30;-0.40;99.90
21207;DHT22;10761;48.532;8.026;2023-12-07T07:11:56;-0.40;99.90
21207;DHT22;10761;48.532;8.026;2023-12-07T07:14:21;-0.50;99.90
21207;DHT22;10761;48.532;8.026;2023-12-07T07:16:47;-0.50;99.90
21207;DHT22;10761;48.532;8.026;2023-12-07T07:19:13;-0.50;99.90
21207;DHT22;10761;48.532;8.026;2023-12-07T07:21:39;-0.60;99.90
21207;DHT22;10761;48.532;8.026;2023-12-07T07:24:05;-0.60;99.90
21207;DHT22;10761;48.532;8.026;2023-12-07T07:26:31;-0.70;99.90
21207;DHT22;10761;48.532;8.026;2023-12-07T07:28:57;-0.80;99.90
21207;DHT22;10761;48.532;8.026;2023-12-07T07:31:23;-0.70;99.90
21207;DHT22;10761;48.532;8.026;2023-12-07T07:33:48;-0.80;99.90
21207;DHT22;10761;48.532;8.026;2023-12-07T07:36:14;-0.80;99.90
21207;DHT22;10761;48.532;8.026;2023-12-07T07:38:40;-0.80;99.90
21207;DHT22;10761;48.532;8.026;2023-12-07T07:41:06;-0.80;99.90
21207;DHT22;10761;48.532;8.026;2023-12-07T07:43:32;-0.70;99.90
21207;DHT22;10761;48.532;8.026;2023-12-07T07:45:59;-0.70;99.90
21207;DHT22;10761;48.532;8.026;2023-12-07T07:48:25;-0.50;99.90
21207;DHT22;10761;48.532;8.026;2023-12-07T07:50:51;-0.50;99.90
21207;DHT22;10761;48.532;8.026;2023-12-07T07:53:17;-0.50;99.90
21207;DHT22;10761;48.532;8.026;2023-12-07T07:55:42;-0.30;99.90
21207;DHT22;10761;48.532;8.026;2023-12-07T07:58:08;-0.20;99.90
21207;DHT22;10761;48.532;8.026;2023-12-07T08:00:34;-0.10;99.90
21207;DHT22;10761;48.532;8.026;2023-12-07T08:02:59;0.10;99.90
21207;DHT22;10761;48.532;8.026;2023-12-07T08:05:25;0.30;99.90
21207;DHT22;10761;48.532;8.026;2023-12-07T08:07:51;0.40;99.90
21207;DHT22;10761;48.532;8.026;2023-12-07T08:10:17;0.60;99.90
21207;DHT22;10761;48.532;8.026;2023-12-07T08:12:43;0.70;99.90
21207;DHT22;10761;48.532;8.026;2023-12-07T08:15:12;0.80;99.90
21207;DHT22;10761;48.532;8.026;2023-12-07T08:17:41;0.90;99.90
21207;DHT22;10761;48.532;8.026;2023-12-07T08:20:08;1.00;99.90
21207;DHT22;10761;48.532;8.026;2023-12-07T08:22:36;1.10;99.90
21207;DHT22;10761;48.532;8.026;2023-12-07T08:25:02;1.20;99.90
21207;DHT22;10761;48.532;8.026;2023-12-07T08:27:28;1.30;99.90
21207;DHT22;10761;48.532;8.026;2023-12-07T08:29:53;1.40;99.90
21207;DHT22;10761;48.532;8.026;2023-12-07T08:32:19;1.60;99.90
21207;DHT22;10761;48.532;8.026;2023-12-07T08:34:45;1.70;99.90
21207;DHT22;10761;48.532;8.026;2023-12-07T08:37:11;1.80;99.90
21207;DHT22;10761;48.532;8.026;2023-12-07T08:39:37;2.00;99.90
21207;DHT22;10761;48.532;8.026;2023-12-07T08:42:03;2.10;99.90
21207;DHT22;10761;48.532;8.026;2023-12-07T08:44:29;2.40;8.50
21207;DHT22;10761;48.532;8.026;2023-12-07T08:46:54;2.40;1.00
21207;DHT22;10761;48.532;8.026;2023-12-07T08:49:20;2.40;1.00
21207;DHT22;10761;48.532;8.026;2023-12-07T08:51:45;2.40;1.00
21207;DHT22;10761;48.532;8.026;2023-12-07T08:54:11;2.60;99.90
21207;DHT22;10761;48.532;8.026;2023-12-07T08:56:37;3.00;75.10
21207;DHT22;10761;48.532;8.026;2023-12-07T08:59:02;3.20;1.00
21207;DHT22;10761;48.532;8.026;2023-12-07T09:01:28;3.40;1.00
21207;DHT22;10761;48.532;8.026;2023-12-07T09:03:55;3.50;1.00
21207;DHT22;10761;48.532;8.026;2023-12-07T09:06:21;3.70;1.00
21207;DHT22;10761;48.532;8.026;2023-12-07T09:08:47;4.00;1.00
21207;DHT22;10761;48.532;8.026;2023-12-07T09:11:12;4.40;99.90
21207;DHT22;10761;48.532;8.026;2023-12-07T09:13:38;4.70;99.90
21207;DHT22;10761;48.532;8.026;2023-12-07T09:16:04;5.10;1.00
21207;DHT22;10761;48.532;8.026;2023-12-07T09:18:30;5.40;1.00
21207;DHT22;10761;48.532;8.026;2023-12-07T09:20:55;5.70;1.00
21207;DHT22;10761;48.532;8.026;2023-12-07T09:23:21;6.00;1.00
21207;DHT22;10761;48.532;8.026;2023-12-07T09:25:46;6.30;1.00
21207;DHT22;10761;48.532;8.026;2023-12-07T09:28:12;6.30;1.00
21207;DHT22;10761;48.532;8.026;2023-12-07T09:30:38;5.60;1.00
21207;DHT22;10761;48.532;8.026;2023-12-07T09:33:03;5.20;1.00
21207;DHT22;10761;48.532;8.026;2023-12-07T09:35:29;4.90;4.00
21207;DHT22;10761;48.532;8.026;2023-12-07T09:37:55;4.50;1.00
21207;DHT22;10761;48.532;8.026;2023-12-07T09:40:22;3.80;99.70
21207;DHT22;10761;48.532;8.026;2023-12-07T09:42:50;3.00;8.30
21207;DHT22;10761;48.532;8.026;2023-12-07T09:45:16;2.40;1.00
21207;DHT22;10761;48.532;8.026;2023-12-07T09:47:50;2.10;1.00
21207;DHT22;10761;48.532;8.026;2023-12-07T09:50:17;2.10;38.00
21207;DHT22;10761;48.532;8.026;2023-12-07T09:52:43;2.10;1.00
21207;DHT22;10761;48.532;8.026;2023-12-07T09:55:09;2.20;16.00
21207;DHT22;10761;48.532;8.026;2023-12-07T09:57:36;2.20;1.00
21207;DHT22;10761;48.532;8.026;2023-12-07T10:00:03;2.10;1.00
21207;DHT22;10761;48.532;8.026;2023-12-07T10:02:30;1.90;33.00
21207;DHT22;10761;48.532;8.026;2023-12-07T10:05:09;2.00;99.90
21207;DHT22;10761;48.532;8.026;2023-12-07T10:07:46;2.20;99.90
21207;DHT22;10761;48.532;8.026;2023-12-07T10:10:15;2.40;70.90
21207;DHT22;10761;48.532;8.026;2023-12-07T10:13:07;2.50;1.00
21207;DHT22;10761;48.532;8.026;2023-12-07T10:15:33;2.60;1.00
21207;DHT22;10761;48.532;8.026;2023-12-07T10:17:59;2.70;1.00
21207;DHT22;10761;48.532;8.026;2023-12-07T10:20:27;2.70;1.00
21207;DHT22;10761;48.532;8.026;2023-12-07T10:23:07;2.70;1.00
21207;DHT22;10761;48.532;8.026;2023-12-07T10:25:36;2.50;1.00
21207;DHT22;10761;48.532;8.026;2023-12-07T10:28:02;2.50;1.00
21207;DHT22;10761;48.532;8.026;2023-12-07T10:30:32;2.30;9.20
21207;DHT22;10761;48.532;8.026;2023-12-07T10:32:57;2.30;99.90
21207;DHT22;10761;48.532;8.026;2023-12-07T10:35:23;2.10;55.80
21207;DHT22;10761;48.532;8.026;2023-12-07T10:37:49;2.20;1.00
21207;DHT22;10761;48.532;8.026;2023-12-07T10:40:14;2.10;1.00
21207;DHT22;10761;48.532;8.026;2023-12-07T10:42:41;2.00;95.30
21207;DHT22;10761;48.532;8.026;2023-12-07T10:45:08;1.90;99.90
21207;DHT22;10761;48.532;8.026;2023-12-07T10:47:38;1.80;99.90
21207;DHT22;10761;48.532;8.026;2023-12-07T10:50:08;1.90;99.90
21207;DHT22;10761;48.532;8.026;2023-12-07T10:52:52;1.70;96.10
21207;DHT22;10761;48.532;8.026;2023-12-07T10:55:28;1.80;99.90
21207;DHT22;10761;48.532;8.026;2023-12-07T10:57:55;1.80;99.90
21207;DHT22;10761;48.532;8.026;2023-12-07T11:00:24;1.60;99.90
21207;DHT22;10761;48.532;8.026;2023-12-07T11:02:53;1.20;99.90
21207;DHT22;10761;48.532;8.026;2023-12-07T11:05:19;0.90;99.90
21207;DHT22;10761;48.532;8.026;2023-12-07T11:07:59;0.70;99.90
21207;DHT22;10761;48.532;8.026;2023-12-07T11:13:30;0.40;99.90
21207;DHT22;10761;48.532;8.026;2023-12-07T11:16:00;0.50;99.90
21207;DHT22;10761;48.532;8.026;2023-12-07T11:18:26;0.70;99.90
21207;DHT22;10761;48.532;8.026;2023-12-07T11:20:53;0.80;99.90
21207;DHT22;10761;48.532;8.026;2023-12-07T11:23:19;1.00;99.90
21207;DHT22;10761;48.532;8.026;2023-12-07T11:25:46;0.90;99.90
21207;DHT22;10761;48.532;8.026;2023-12-07T11:28:12;1.00;99.90
21207;DHT22;10761;48.532;8.026;2023-12-07T11:30:42;1.00;99.90
21207;DHT22;10761;48.532;8.026;2023-12-07T11:33:09;1.00;99.90
21207;DHT22;10761;48.532;8.026;2023-12-07T11:38:26;1.20;99.90
21207;DHT22;10761;48.532;8.026;2023-12-07T11:40:54;1.30;99.90
21207;DHT22;10761;48.532;8.026;2023-12-07T11:45:59;1.50;99.90
21207;DHT22;10761;48.532;8.026;2023-12-07T11:48:25;1.70;99.90
21207;DHT22;10761;48.532;8.026;2023-12-07T11:50:55;1.90;99.90
21207;DHT22;10761;48.532;8.026;2023-12-07T11:53:23;2.00;99.90
21207;DHT22;10761;48.532;8.026;2023-12-07T11:55:49;1.80;99.90
21207;DHT22;10761;48.532;8.026;2023-12-07T11:58:15;1.70;99.90
21207;DHT22;10761;48.532;8.026;2023-12-07T12:00:41;1.60;99.90
21207;DHT22;10761;48.532;8.026;2023-12-07T12:03:07;1.80;99.90
21207;DHT22;10761;48.532;8.026;2023-12-07T12:05:32;1.90;99.90
21207;DHT22;10761;48.532;8.026;2023-12-07T12:07:58;1.70;99.90
21207;DHT22;10761;48.532;8.026;2023-12-07T12:10:23;1.50;99.90
21207;DHT22;10761;48.532;8.026;2023-12-07T12:12:52;1.50;99.90
21207;DHT22;10761;48.532;8.026;2023-12-07T12:15:18;1.50;99.90
21207;DHT22;10761;48.532;8.026;2023-12-07T12:17:45;1.50;99.90
21207;DHT22;10761;48.532;8.026;2023-12-07T12:20:13;1.40;99.90
21207;DHT22;10761;48.532;8.026;2023-12-07T12:22:43;1.20;99.90
21207;DHT22;10761;48.532;8.026;2023-12-07T12:25:08;1.00;99.90
21207;DHT22;10761;48.532;8.026;2023-12-07T12:27:35;0.90;99.90
21207;DHT22;10761;48.532;8.026;2023-12-07T12:30:01;0.90;99.90
21207;DHT22;10761;48.532;8.026;2023-12-07T12:32:27;0.90;99.90
21207;DHT22;10761;48.532;8.026;2023-12-07T12:34:53;1.00;99.90
21207;DHT22;10761;48.532;8.026;2023-12-07T12:37:18;0.80;99.90
21207;DHT22;10761;48.532;8.026;2023-12-07T12:39:44;0.60;99.90
21207;DHT22;10761;48.532;8.026;2023-12-07T12:42:10;0.50;99.90
21207;DHT22;10761;48.532;8.026;2023-12-07T12:44:37;0.50;99.90
21207;DHT22;10761;48.532;8.026;2023-12-07T12:47:07;0.40;99.90
21207;DHT22;10761;48.532;8.026;2023-12-07T12:49:37;0.40;99.90
21207;DHT22;10761;48.532;8.026;2023-12-07T12:52:03;0.20;99.90
21207;DHT22;10761;48.532;8.026;2023-12-07T12:54:32;0.30;99.90
21207;DHT22;10761;48.532;8.026;2023-12-07T12:56:58;0.40;99.90
21207;DHT22;10761;48.532;8.026;2023-12-07T12:59:24;0.40;99.90
21207;DHT22;10761;48.532;8.026;2023-12-07T13:01:50;0.50;99.90
21207;DHT22;10761;48.532;8.026;2023-12-07T13:04:16;0.50;99.90
21207;DHT22;10761;48.532;8.026;2023-12-07T13:06:42;0.50;99.90
21207;DHT22;10761;48.532;8.026;2023-12-07T13:09:07;0.50;99.90
21207;DHT22;10761;48.532;8.026;2023-12-07T13:11:33;0.60;99.90
21207;DHT22;10761;48.532;8.026;2023-12-07T13:13:58;0.70;99.90
21207;DHT22;10761;48.532;8.026;2023-12-07T13:16:24;0.80;99.90
21207;DHT22;10761;48.532;8.026;2023-12-07T13:18:50;0.80;99.90
21207;DHT22;10761;48.532;8.026;2023-12-07T13:21:15;0.70;99.90
21207;DHT22;10761;48.532;8.026;2023-12-07T13:23:41;0.70;99.90
21207;DHT22;10761;48.532;8.026;2023-12-07T13:26:07;0.70;99.90
21207;DHT22;10761;48.532;8.026;2023-12-07T13:28:33;0.60;99.90
21207;DHT22;10761;48.532;8.026;2023-12-07T13:30:59;0.60;99.90
21207;DHT22;10761;48.532;8.026;2023-12-07T13:33:24;0.50;99.90
21207;DHT22;10761;48.532;8.026;2023-12-07T13:35:51;0.50;99.90
21207;DHT22;10761;48.532;8.026;2023-12-07T13:38:17;0.60;99.90
21207;DHT22;10761;48.532;8.026;2023-12-07T13:40:45;0.60;99.90
21207;DHT22;10761;48.532;8.026;2023-12-07T13:43:12;0.60;99.90
21207;DHT22;10761;48.532;8.026;2023-12-07T13:45:38;0.70;99.90
21207;DHT22;10761;48.532;8.026;2023-12-07T13:48:03;0.70;99.90
21207;DHT22;10761;48.532;8.026;2023-12-07T13:50:29;0.80;99.90
21207;DHT22;10761;48.532;8.026;2023-12-07T13:52:55;0.90;99.90
21207;DHT22;10761;48.532;8.026;2023-12-07T13:55:20;0.90;99.90
21207;DHT22;10761;48.532;8.026;2023-12-07T13:57:46;0.90;99.90
21207;DHT22;10761;48.532;8.026;2023-12-07T14:00:12;1.00;99.90
21207;DHT22;10761;48.532;8.026;2023-12-07T14:02:40;0.90;99.90
21207;DHT22;10761;48.532;8.026;2023-12-07T14:05:07;0.90;99.90
21207;DHT22;10761;48.532;8.026;2023-12-07T14:07:32;0.90;99.90
21207;DHT22;10761;48.532;8.026;2023-12-07T14:09:58;0.80;99.90
21207;DHT22;10761;48.532;8.026;2023-12-07T14:12:24;0.70;99.90
21207;DHT22;10761;48.532;8.026;2023-12-07T14:14:50;0.60;99.90
21207;DHT22;10761;48.532;8.026;2023-12-07T14:17:17;0.50;99.90
21207;DHT22;10761;48.532;8.026;2023-12-07T14:19:43;0.50;99.90
21207;DHT22;10761;48.532;8.026;2023-12-07T14:22:09;0.50;99.90
21207;DHT22;10761;48.532;8.026;2023-12-07T14:24:36;0.60;99.90
21207;DHT22;10761;48.532;8.026;2023-12-07T14:27:02;0.50;99.90
21207;DHT22;10761;48.532;8.026;2023-12-07T14:29:29;0.50;99.90
21207;DHT22;10761;48.532;8.026;2023-12-07T14:31:55;0.50;99.90
21207;DHT22;10761;48.532;8.026;2023-12-07T14:34:21;0.60;99.90
21207;DHT22;10761;48.532;8.026;2023-12-07T14:36:46;0.50;99.90
21207;DHT22;10761;48.532;8.026;2023-12-07T14:39:12;0.50;99.90
21207;DHT22;10761;48.532;8.026;2023-12-07T14:41:46;0.50;99.90
21207;DHT22;10761;48.532;8.026;2023-12-07T14:44:15;0.50;99.90
21207;DHT22;10761;48.532;8.026;2023-12-07T14:46:48;0.50;99.90
21207;DHT22;10761;48.532;8.026;2023-12-07T14:49:15;0.50;99.90
21207;DHT22;10761;48.532;8.026;2023-12-07T14:51:42;0.50;99.90
21207;DHT22;10761;48.532;8.026;2023-12-07T14:54:08;0.60;99.90
21207;DHT22;10761;48.532;8.026;2023-12-07T14:56:38;0.60;99.90
21207;DHT22;10761;48.532;8.026;2023-12-07T14:59:03;0.70;99.90
21207;DHT22;10761;48.532;8.026;2023-12-07T15:01:29;0.70;99.90
21207;DHT22;10761;48.532;8.026;2023-12-07T15:03:56;0.80;99.90
21207;DHT22;10761;48.532;8.026;2023-12-07T15:06:22;0.70;99.90
21207;DHT22;10761;48.532;8.026;2023-12-07T15:08:47;0.70;99.90
21207;DHT22;10761;48.532;8.026;2023-12-07T15:11:13;0.70;99.90
21207;DHT22;10761;48.532;8.026;2023-12-07T15:13:39;0.60;99.90
21207;DHT22;10761;48.532;8.026;2023-12-07T15:16:05;0.50;99.90
21207;DHT22;10761;48.532;8.026;2023-12-07T15:18:31;0.40;99.90
21207;DHT22;10761;48.532;8.026;2023-12-07T15:21:00;0.40;99.90
21207;DHT22;10761;48.532;8.026;2023-12-07T15:23:27;0.40;99.90
21207;DHT22;10761;48.532;8.026;2023-12-07T15:25:52;0.40;99.90
21207;DHT22;10761;48.532;8.026;2023-12-07T15:28:20;0.20;99.90
21207;DHT22;10761;48.532;8.026;2023-12-07T15:30:45;0.20;99.90
21207;DHT22;10761;48.532;8.026;2023-12-07T15:33:11;0.10;99.90
21207;DHT22;10761;48.532;8.026;2023-12-07T15:35:39;0.10;99.90
21207;DHT22;10761;48.532;8.026;2023-12-07T15:38:05;0.10;99.90
21207;DHT22;10761;48.532;8.026;2023-12-07T15:40:30;0.20;99.90
21207;DHT22;10761;48.532;8.026;2023-12-07T15:42:56;0.20;99.90
21207;DHT22;10761;48.532;8.026;2023-12-07T15:45:22;0.20;99.90
21207;DHT22;10761;48.532;8.026;2023-12-07T15:47:47;0.20;99.90
21207;DHT22;10761;48.532;8.026;2023-12-07T15:50:13;0.20;99.90
21207;DHT22;10761;48.532;8.026;2023-12-07T15:52:39;0.30;99.90